Time;durP1;ratioP1;P1;durP2;ratioP2;P2;SDS_P1;SDS_P2;PMS_P1;PMS_P2;Temp;Humidity;BMP_temperature;BMP_pressure;BME280_temperature;BME280_humidity;BME280_pressure;Samples;Min_cycle;Max_cycle;Signal;HPM_P1;HPM_P2
2021/04/05 00:02:21;;;;;;;7.18;4.55;;;8.80;99.90;;;;;;5012046;28;20126;-80
2021/04/05 00:04:48;;;;;;;15.35;4.95;;;8.80;99.90;;;;;;5011924;28;20038;-82
2021/04/05 00:07:14;;;;;;;8.25;4.47;;;8.80;99.90;;;;;;5011965;28;20021;-79
2021/04/05 00:09:41;;;;;;;12.63;4.68;;;8.80;99.90;;;;;;5010575;28;20037;-79
2021/04/05 00:12:08;;;;;;;9.43;4.30;;;8.80;99.90;;;;;;5011326;28;20502;-80
2021/04/05 00:14:34;;;;;;;10.30;4.50;;;8.80;99.90;;;;;;5011180;28;20481;-81
2021/04/05 00:17:00;;;;;;;8.48;4.53;;;8.80;99.90;;;;;;5011158;28;20099;-80
2021/04/05 00:19:26;;;;;;;8.00;4.00;;;8.80;99.90;;;;;;5010061;28;20050;-80
2021/04/05 00:21:51;;;;;;;9.57;5.50;;;8.80;99.90;;;;;;5011546;28;20026;-81
2021/04/05 00:24:17;;;;;;;8.32;4.40;;;8.80;99.90;;;;;;5010707;28;20057;-80
2021/04/05 00:26:43;;;;;;;6.32;4.30;;;8.80;99.90;;;;;;5011422;28;20018;-81
2021/04/05 00:29:08;;;;;;;14.48;4.95;;;8.80;99.90;;;;;;4990721;28;20058;-80
2021/04/05 00:31:34;;;;;;;8.23;4.63;;;8.80;99.90;;;;;;5010296;28;20018;-83
2021/04/05 00:34:00;;;;;;;7.65;4.45;;;8.80;99.90;;;;;;5011202;28;20048;-79
2021/04/05 00:36:26;;;;;;;8.70;4.85;;;8.80;99.90;;;;;;5011164;28;20022;-80
2021/04/05 00:38:51;;;;;;;9.10;4.57;;;8.80;99.90;;;;;;5010102;28;20019;-80
2021/04/05 00:41:17;;;;;;;8.07;4.63;;;8.80;99.90;;;;;;5011279;28;20475;-79
2021/04/05 00:43:47;;;;;;;10.38;5.30;;;8.80;99.90;;;;;;5011021;28;20053;-80
2021/04/05 00:46:21;;;;;;;10.52;4.80;;;8.70;99.90;;;;;;5011388;28;20077;-81
2021/04/05 00:48:48;;;;;;;8.13;4.40;;;8.60;99.90;;;;;;5009854;28;20056;-80
2021/04/05 00:51:19;;;;;;;13.85;4.60;;;8.60;99.90;;;;;;5010247;28;20493;-82
2021/04/05 00:53:46;;;;;;;6.40;3.92;;;8.60;99.90;;;;;;5010124;28;20022;-80
2021/04/05 00:56:13;;;;;;;15.00;4.25;;;8.60;99.90;;;;;;5011744;28;20022;-80
2021/04/05 00:58:40;;;;;;;9.93;4.00;;;8.50;99.90;;;;;;5010954;28;20068;-80
2021/04/05 01:01:18;;;;;;;5.85;3.90;;;8.50;99.90;;;;;;5011215;28;20108;-85
2021/04/05 01:03:44;;;;;;;8.45;4.15;;;8.50;99.90;;;;;;5011356;28;20032;-79
2021/04/05 01:06:14;;;;;;;6.10;4.10;;;8.40;99.90;;;;;;5011514;28;20022;-80
2021/04/05 01:08:40;;;;;;;9.43;4.25;;;8.40;99.90;;;;;;5011144;28;20029;-79
2021/04/05 01:11:08;;;;;;;11.45;4.22;;;8.30;99.90;;;;;;5011739;28;20104;-80
2021/04/05 01:13:34;;;;;;;5.43;4.25;;;8.30;99.90;;;;;;5011520;28;20121;-80
2021/04/05 01:16:00;;;;;;;7.30;4.00;;;8.30;99.90;;;;;;5011651;28;20109;-85
2021/04/05 01:18:28;;;;;;;7.40;3.83;;;8.30;99.90;;;;;;5011361;28;20025;-79
2021/04/05 01:20:54;;;;;;;9.27;4.32;;;8.20;99.90;;;;;;5012335;28;20044;-80
2021/04/05 01:23:21;;;;;;;11.85;4.72;;;8.20;99.90;;;;;;5013804;28;20026;-82
2021/04/05 01:25:47;;;;;;;6.35;4.05;;;8.20;99.90;;;;;;5018401;28;20063;-80
2021/04/05 01:28:12;;;;;;;8.90;4.38;;;8.20;99.90;;;;;;5023392;28;20018;-79
2021/04/05 01:30:43;;;;;;;8.43;4.03;;;8.20;99.90;;;;;;5027731;28;20497;-79
2021/04/05 01:33:20;;;;;;;7.30;4.03;;;8.20;99.90;;;;;;5019413;28;20022;-78
2021/04/05 01:35:50;;;;;;;13.85;4.63;;;8.10;99.90;;;;;;5014401;28;20428;-78
2021/04/05 01:38:31;;;;;;;9.23;4.22;;;8.10;99.90;;;;;;5013098;28;20025;-80
2021/04/05 01:41:06;;;;;;;7.78;3.88;;;8.10;99.90;;;;;;5013946;28;20038;-79
2021/04/05 01:43:33;;;;;;;10.20;4.20;;;8.10;99.90;;;;;;5014182;28;20054;-78
2021/04/05 01:46:00;;;;;;;5.55;4.15;;;8.10;99.90;;;;;;5013917;28;20026;-79
2021/04/05 01:48:28;;;;;;;5.63;4.22;;;8.10;99.90;;;;;;5014150;28;20042;-78
2021/04/05 01:50:58;;;;;;;10.65;4.00;;;8.10;99.90;;;;;;5014019;28;20029;-79
2021/04/05 01:53:24;;;;;;;6.97;4.00;;;8.10;99.90;;;;;;5014170;28;20026;-79
2021/04/05 01:55:50;;;;;;;8.13;4.35;;;8.10;99.90;;;;;;5013902;28;20594;-80
2021/04/05 01:58:18;;;;;;;6.13;3.90;;;8.10;99.90;;;;;;5020237;28;20029;-79
2021/04/05 02:00:46;;;;;;;7.10;4.43;;;8.10;99.90;;;;;;5013701;28;20073;-78
2021/04/05 02:03:12;;;;;;;11.13;4.03;;;8.10;99.90;;;;;;5013908;28;20018;-80
2021/04/05 02:05:54;;;;;;;8.07;4.43;;;8.10;99.90;;;;;;5014120;28;20068;-79
2021/04/05 02:08:24;;;;;;;6.90;3.63;;;8.00;99.90;;;;;;5007197;28;20413;-79
2021/04/05 02:10:51;;;;;;;5.32;3.88;;;8.00;99.90;;;;;;5020103;28;20352;-79
2021/04/05 02:13:24;;;;;;;10.13;3.33;;;8.00;99.90;;;;;;5013714;28;20040;-79
2021/04/05 02:15:50;;;;;;;13.85;3.88;;;8.00;99.90;;;;;;5013556;28;20033;-79
2021/04/05 02:18:17;;;;;;;6.55;3.53;;;8.00;99.90;;;;;;5013397;28;20479;-79
2021/04/05 02:20:44;;;;;;;8.23;4.30;;;8.00;99.90;;;;;;5013362;28;20372;-80
2021/04/05 02:23:11;;;;;;;5.43;3.58;;;7.90;99.90;;;;;;5012965;28;20414;-80
2021/04/05 02:26:05;;;;;;;13.40;3.83;;;8.00;99.90;;;;;;5011369;28;20030;-80
2021/04/05 02:28:24;;;;;;;5.78;3.78;;;7.90;99.90;;;;;;5013376;28;20037;-79
2021/04/05 02:30:51;;;;;;;9.07;4.00;;;7.90;99.90;;;;;;5012346;28;20057;-80
2021/04/05 02:33:17;;;;;;;7.72;3.88;;;7.90;99.90;;;;;;5011555;28;20389;-80
2021/04/05 02:35:43;;;;;;;7.10;3.67;;;7.90;99.90;;;;;;5012856;28;20104;-80
2021/04/05 02:38:08;;;;;;;8.10;3.45;;;7.80;99.90;;;;;;5013113;28;20447;-79
2021/04/05 02:40:34;;;;;;;7.80;3.75;;;7.90;99.90;;;;;;5012802;28;20037;-79
2021/04/05 02:43:01;;;;;;;9.27;3.92;;;7.90;99.90;;;;;;5013142;28;20033;-79
2021/04/05 02:45:28;;;;;;;14.48;4.57;;;7.90;99.90;;;;;;5013207;28;20036;-80
2021/04/05 02:47:56;;;;;;;6.05;4.18;;;7.80;99.90;;;;;;5011668;28;20121;-80
2021/04/05 02:50:26;;;;;;;5.85;3.40;;;7.80;99.90;;;;;;5013023;28;20387;-80
2021/04/05 02:52:54;;;;;;;9.00;4.10;;;7.80;99.90;;;;;;5012157;28;20219;-81
2021/04/05 02:55:20;;;;;;;8.85;3.72;;;7.80;99.90;;;;;;5010129;28;20340;-80
2021/04/05 02:57:46;;;;;;;5.65;3.78;;;7.80;99.90;;;;;;5010779;28;20030;-82
2021/04/05 03:00:17;;;;;;;11.02;4.60;;;7.80;99.90;;;;;;5011185;28;20042;-81
2021/04/05 03:02:47;;;;;;;8.60;4.33;;;7.80;99.90;;;;;;5011297;28;20109;-79
2021/04/05 03:05:16;;;;;;;5.22;3.85;;;7.90;99.90;;;;;;5011897;28;20382;-82
2021/04/05 03:07:43;;;;;;;8.32;3.95;;;7.80;99.90;;;;;;5012572;28;20022;-80
2021/04/05 03:10:10;;;;;;;8.52;3.78;;;7.80;99.90;;;;;;5012608;28;20080;-79
2021/04/05 03:12:38;;;;;;;7.28;4.88;;;7.80;99.90;;;;;;5012487;28;20029;-78
2021/04/05 03:15:06;;;;;;;11.35;3.90;;;7.80;99.90;;;;;;5012862;28;20075;-81
2021/04/05 03:17:35;;;;;;;5.05;3.60;;;7.80;99.90;;;;;;5012032;28;20026;-80
2021/04/05 03:20:04;;;;;;;8.82;4.07;;;7.80;99.90;;;;;;5012596;28;20030;-80
2021/04/05 03:22:29;;;;;;;5.45;3.83;;;7.80;99.90;;;;;;5012126;28;20070;-79
2021/04/05 03:24:55;;;;;;;6.88;4.40;;;7.80;99.90;;;;;;5011152;28;20522;-80
2021/04/05 03:27:21;;;;;;;8.43;3.80;;;7.70;99.90;;;;;;5012427;28;20115;-80
2021/04/05 03:29:48;;;;;;;8.40;4.03;;;7.80;99.90;;;;;;5010661;28;20030;-80
2021/04/05 03:32:21;;;;;;;7.38;3.58;;;7.70;99.90;;;;;;5011188;28;20026;-80
2021/04/05 03:34:57;;;;;;;3.72;3.13;;;7.70;99.90;;;;;;5012389;28;20028;-81
2021/04/05 03:37:25;;;;;;;6.82;3.63;;;7.60;99.90;;;;;;5012636;28;20026;-82
2021/04/05 03:39:51;;;;;;;10.40;3.60;;;7.50;99.90;;;;;;5027291;28;20603;-80
2021/04/05 03:42:25;;;;;;;9.35;3.53;;;7.50;99.90;;;;;;5012646;28;20034;-79
2021/04/05 03:44:58;;;;;;;8.65;4.15;;;7.40;99.90;;;;;;5012113;28;20057;-87
2021/04/05 03:47:45;;;;;;;5.00;3.35;;;7.40;99.90;;;;;;5012493;28;20041;-79
2021/04/05 03:50:26;;;;;;;5.88;3.58;;;7.30;99.90;;;;;;5010686;28;20498;-79
2021/04/05 03:53:30;;;;;;;9.52;3.83;;;7.30;99.90;;;;;;5011841;28;20058;-82
2021/04/05 03:56:02;;;;;;;11.23;3.90;;;7.20;99.90;;;;;;4996389;28;20041;-80
2021/04/05 03:58:31;;;;;;;8.77;3.65;;;7.20;99.90;;;;;;5012079;28;20029;-81
2021/04/05 04:01:02;;;;;;;6.40;3.45;;;7.20;99.90;;;;;;5012341;28;20527;-80
2021/04/05 04:03:43;;;;;;;5.53;3.38;;;7.20;99.90;;;;;;5012006;28;20093;-80
2021/04/05 04:06:12;;;;;;;8.15;3.38;;;7.20;99.90;;;;;;5011978;28;20033;-85
2021/04/05 04:08:44;;;;;;;11.48;3.70;;;7.10;99.90;;;;;;5011700;28;20017;-83
2021/04/05 04:11:10;;;;;;;;;;;7.00;99.90;;;;;;5010967;28;20025;-80
2021/04/05 04:13:42;;;;;;;7.72;3.08;;;7.00;99.90;;;;;;5011697;28;19912;-80
2021/04/05 04:16:10;;;;;;;5.78;3.90;;;7.00;99.90;;;;;;5011711;28;20508;-79
2021/04/05 04:18:36;;;;;;;10.80;3.58;;;6.90;99.90;;;;;;5011107;28;20506;-81
2021/04/05 04:21:06;;;;;;;6.95;3.20;;;6.80;99.90;;;;;;5010961;28;20180;-79
2021/04/05 04:23:32;;;;;;;12.60;5.07;;;6.80;99.90;;;;;;5011970;28;20050;-80
2021/04/05 04:25:58;;;;;;;10.93;4.15;;;6.70;99.90;;;;;;5011336;28;20483;-80
2021/04/05 04:28:23;;;;;;;7.30;3.85;;;6.70;99.90;;;;;;5011637;28;20053;-79
2021/04/05 04:30:57;;;;;;;8.80;4.47;;;6.60;99.90;;;;;;5011546;28;20014;-85
2021/04/05 04:33:26;;;;;;;23.63;10.60;;;6.60;99.90;;;;;;5011447;28;20037;-79
2021/04/05 04:35:53;;;;;;;90.43;29.65;;;6.60;99.90;;;;;;5011342;28;20049;-82
2021/04/05 04:38:24;;;;;;;22.42;11.68;;;6.70;99.90;;;;;;5011580;28;20030;-81
2021/04/05 04:40:51;;;;;;;17.98;7.72;;;6.70;99.90;;;;;;5010549;28;20048;-79
2021/04/05 04:43:17;;;;;;;32.03;18.33;;;6.70;99.90;;;;;;5011140;28;20032;-82
2021/04/05 04:45:43;;;;;;;21.92;11.85;;;6.70;99.90;;;;;;5010903;28;20030;-82
2021/04/05 04:48:09;;;;;;;47.35;29.67;;;6.60;99.90;;;;;;5011234;28;20096;-79
2021/04/05 04:50:35;;;;;;;28.50;15.18;;;6.70;99.90;;;;;;5011297;28;20030;-78
2021/04/05 04:53:01;;;;;;;10.05;6.60;;;6.70;99.90;;;;;;5011047;28;20025;-82
2021/04/05 04:55:27;;;;;;;12.80;6.28;;;6.80;99.90;;;;;;5009237;28;20422;-81
2021/04/05 04:57:57;;;;;;;12.73;4.78;;;6.80;99.90;;;;;;5014700;28;20454;-79
2021/04/05 05:00:24;;;;;;;51.97;36.25;;;6.90;99.90;;;;;;5014464;28;20484;-80
2021/04/05 05:02:51;;;;;;;14.15;10.38;;;6.90;99.90;;;;;;5014582;28;20033;-80
2021/04/05 05:05:19;;;;;;;22.08;13.48;;;7.00;99.90;;;;;;5015007;28;20386;-78
2021/04/05 05:07:46;;;;;;;40.55;28.70;;;7.00;99.90;;;;;;5014498;28;20098;-80
2021/04/05 05:10:13;;;;;;;25.02;16.65;;;7.10;99.90;;;;;;5014616;28;20022;-80
2021/04/05 05:12:40;;;;;;;13.82;8.35;;;7.40;99.90;;;;;;5014806;28;20029;-81
2021/04/05 05:15:08;;;;;;;7.72;6.57;;;7.80;99.90;;;;;;5014994;28;20053;-80
2021/04/05 05:17:36;;;;;;;6.88;3.50;;;8.50;99.90;;;;;;5029846;28;20018;-79
2021/04/05 05:20:02;;;;;;;7.25;3.65;;;9.20;99.90;;;;;;5014719;28;20044;-81
2021/04/05 05:22:29;;;;;;;7.32;3.25;;;9.80;99.90;;;;;;5014222;28;20018;-79
2021/04/05 05:24:56;;;;;;;10.05;3.33;;;10.40;99.90;;;;;;5014045;28;20446;-80
2021/04/05 05:27:23;;;;;;;8.63;3.42;;;10.90;99.90;;;;;;5013693;28;20472;-80
2021/04/05 05:29:49;;;;;;;8.82;3.88;;;11.30;99.90;;;;;;5014878;28;20034;-80
2021/04/05 05:32:18;;;;;;;9.07;5.18;;;11.70;99.90;;;;;;5014675;28;20022;-86
2021/04/05 05:34:46;;;;;;;8.73;4.07;;;12.10;99.90;;;;;;5013676;28;20036;-80
2021/04/05 05:37:14;;;;;;;4.68;3.20;;;12.60;99.90;;;;;;5014604;28;20113;-83
2021/04/05 05:39:41;;;;;;;50.97;30.63;;;13.10;99.90;;;;;;5014233;28;20536;-80
2021/04/05 05:42:25;;;;;;;10.32;5.38;;;13.40;99.90;;;;;;5014723;28;20065;-81
2021/04/05 05:45:05;;;;;;;11.27;6.05;;;13.60;99.90;;;;;;5013915;28;20479;-81
2021/04/05 05:47:48;;;;;;;5.82;3.03;;;13.80;99.90;;;;;;5013771;28;20022;-81
2021/04/05 05:50:23;;;;;;;20.17;12.18;;;14.40;99.90;;;;;;5014083;28;20445;-80
2021/04/05 05:53:16;;;;;;;6.40;3.67;;;14.70;99.90;;;;;;5012396;28;20105;-80
2021/04/05 05:55:48;;;;;;;12.02;7.07;;;15.30;99.20;;;;;;5013811;28;20026;-81
2021/04/05 05:58:22;;;;;;;13.30;5.38;;;15.50;98.40;;;;;;5012489;28;20559;-81
2021/04/05 06:00:47;;;;;;;10.07;6.32;;;15.60;97.60;;;;;;5013525;28;20091;-81
2021/04/05 06:03:24;;;;;;;17.58;9.38;;;15.70;96.60;;;;;;5014041;28;20109;-80
2021/04/05 06:05:56;;;;;;;10.20;6.68;;;15.90;96.20;;;;;;5013625;28;20022;-81
2021/04/05 06:08:39;;;;;;;12.25;8.18;;;15.80;95.50;;;;;;5013076;28;20018;-82
2021/04/05 06:11:47;;;;;;;15.93;7.22;;;16.10;95.60;;;;;;5027795;28;20387;-80
2021/04/05 06:14:28;;;;;;;10.20;6.07;;;16.40;94.80;;;;;;5013330;28;20021;-81
2021/04/05 06:17:13;;;;;;;10.93;6.93;;;16.80;93.80;;;;;;5013457;28;20058;-82
2021/04/05 06:19:48;;;;;;;12.85;5.82;;;17.10;93.10;;;;;;5012409;28;20522;-81
2021/04/05 06:22:59;;;;;;;15.48;7.15;;;17.40;92.10;;;;;;5013536;28;20484;-80
2021/04/05 06:25:36;;;;;;;11.70;7.35;;;17.80;91.60;;;;;;5013352;28;20037;-82
2021/04/05 06:28:05;;;;;;;7.72;5.20;;;18.50;90.80;;;;;;5013448;28;20018;-82
2021/04/05 06:30:54;;;;;;;8.35;3.80;;;18.90;89.60;;;;;;5012661;28;20026;-82
2021/04/05 06:33:28;;;;;;;11.18;3.67;;;19.10;88.30;;;;;;5012883;28;20408;-82
2021/04/05 06:36:30;;;;;;;10.52;3.42;;;19.30;87.20;;;;;;5013189;28;20026;-82
2021/04/05 06:39:06;;;;;;;11.60;4.13;;;19.80;85.30;;;;;;5015609;28;20028;-81
2021/04/05 06:41:37;;;;;;;7.78;3.35;;;20.30;83.50;;;;;;5017625;28;20125;-83
2021/04/05 06:44:28;;;;;;;9.55;4.82;;;20.40;83.10;;;;;;5013122;28;20026;-80
2021/04/05 06:47:30;;;;;;;8.50;3.22;;;21.10;81.40;;;;;;5005495;28;20034;-83
2021/04/05 06:50:25;;;;;;;7.40;2.95;;;21.60;79.30;;;;;;5012490;28;20038;-85
2021/04/05 06:52:59;;;;;;;4.72;2.70;;;22.00;77.30;;;;;;5012598;28;20025;-80
2021/04/05 06:55:51;;;;;;;5.72;2.72;;;22.30;75.20;;;;;;5012705;28;20018;-80
2021/04/05 06:58:24;;;;;;;6.38;2.05;;;22.50;74.10;;;;;;5005912;28;20042;-83
2021/04/05 07:01:18;;;;;;;2.15;1.75;;;22.70;73.80;;;;;;5016172;28;20065;-85
2021/04/05 07:04:08;;;;;;;4.03;1.67;;;23.20;71.60;;;;;;5017937;28;20031;-84
2021/04/05 07:06:40;;;;;;;3.58;2.10;;;23.90;69.80;;;;;;5016954;28;20018;-85
2021/04/05 07:09:18;;;;;;;5.80;1.90;;;24.10;68.50;;;;;;5028852;28;20470;-85
2021/04/05 07:11:44;;;;;;;6.25;1.90;;;24.40;67.40;;;;;;5020799;28;20061;-80
2021/04/05 07:14:54;;;;;;;3.25;1.90;;;24.40;67.70;;;;;;5021109;28;20026;-83
2021/04/05 07:17:27;;;;;;;5.72;2.17;;;24.80;66.70;;;;;;4946516;29;20039;-81
2021/04/05 07:20:03;;;;;;;4.18;2.05;;;25.20;65.10;;;;;;4950625;28;20043;-81
2021/04/05 07:22:34;;;;;;;7.32;2.53;;;25.90;63.20;;;;;;4989620;28;20031;-81
2021/04/05 07:25:06;;;;;;;;;;;26.30;61.70;;;;;;5021597;28;20033;-81
2021/04/05 07:27:44;;;;;;;5.70;1.98;;;26.20;60.80;;;;;;5013855;28;19909;-81
2021/04/05 07:30:25;;;;;;;4.40;2.10;;;;;;;;;;5026769;28;20125;-80
2021/04/05 07:33:29;;;;;;;4.97;2.55;;;26.90;59.40;;;;;;5015156;28;20615;-81
2021/04/05 07:36:16;;;;;;;5.50;2.13;;;27.10;58.90;;;;;;5010899;28;20497;-81
2021/04/05 07:39:06;;;;;;;5.68;2.30;;;27.00;58.50;;;;;;5029450;28;20029;-82
2021/04/05 07:41:51;;;;;;;4.37;2.07;;;27.00;57.40;;;;;;5023521;28;20065;-81
2021/04/05 07:44:29;;;;;;;5.78;1.85;;;27.20;57.40;;;;;;5016336;28;20014;-81
2021/04/05 07:47:06;;;;;;;6.57;1.70;;;27.70;56.40;;;;;;5011838;28;20018;-81
2021/04/05 07:49:38;;;;;;;7.07;2.22;;;27.80;55.70;;;;;;5013993;28;20438;-81
2021/04/05 07:52:30;;;;;;;5.32;1.80;;;27.80;55.70;;;;;;5011578;28;20038;-81
2021/04/05 07:54:56;;;;;;;7.30;2.05;;;28.10;55.50;;;;;;4982858;28;20441;-79
2021/04/05 07:57:38;;;;;;;5.22;2.38;;;28.70;54.70;;;;;;5017435;28;20021;-80
2021/04/05 08:00:09;;;;;;;5.30;2.50;;;29.00;54.40;;;;;;5018841;28;20066;-79
2021/04/05 08:02:44;;;;;;;8.18;2.17;;;28.70;54.10;;;;;;5024792;28;20028;-80
2021/04/05 08:05:20;;;;;;;5.50;2.08;;;27.90;54.60;;;;;;5027603;28;20442;-80
2021/04/05 08:08:24;;;;;;;10.75;2.25;;;26.90;55.10;;;;;;5028662;28;20047;-80
2021/04/05 08:11:23;;;;;;;6.10;2.30;;;26.00;55.90;;;;;;4934112;29;20090;-80
2021/04/05 08:14:04;;;;;;;3.97;2.00;;;24.70;57.40;;;;;;4949864;28;20026;-80
2021/04/05 08:16:51;;;;;;;5.05;2.45;;;23.80;58.50;;;;;;5007774;28;20046;-80
2021/04/05 08:19:41;;;;;;;4.70;2.47;;;22.90;60.40;;;;;;5038186;28;20029;-80
2021/04/05 08:22:16;;;;;;;7.40;2.45;;;22.40;60.60;;;;;;5024430;28;20025;-80
2021/04/05 08:25:02;;;;;;;4.55;2.13;;;22.10;61.00;;;;;;5023204;28;20497;-80
2021/04/05 08:27:39;;;;;;;7.07;2.53;;;21.70;61.40;;;;;;5028554;28;20108;-80
2021/04/05 08:30:12;;;;;;;6.68;2.50;;;21.30;62.60;;;;;;5023382;28;20112;-80
2021/04/05 08:32:56;;;;;;;4.20;2.25;;;21.20;62.70;;;;;;5026962;28;20033;-80
2021/04/05 08:35:44;;;;;;;6.65;3.17;;;21.00;62.90;;;;;;5028601;28;20014;-80
2021/04/05 08:38:50;;;;;;;6.30;2.35;;;20.70;63.40;;;;;;5030734;28;20022;-80
2021/04/05 08:41:43;;;;;;;4.88;2.70;;;20.60;63.40;;;;;;5023663;28;20107;-81
2021/04/05 08:44:13;;;;;;;12.93;2.72;;;20.00;64.30;;;;;;5028879;28;20096;-79
2021/04/05 08:46:39;;;;;;;5.32;3.17;;;19.90;65.30;;;;;;5031343;28;20083;-80
2021/04/05 08:49:13;;;;;;;6.68;2.85;;;19.80;65.40;;;;;;5015067;28;20045;-80
2021/04/05 08:51:45;;;;;;;5.53;3.10;;;19.80;65.50;;;;;;5017181;28;20476;-79
2021/04/05 08:54:14;;;;;;;9.23;2.40;;;19.70;65.90;;;;;;5014390;28;20106;-79
2021/04/05 08:56:59;;;;;;;8.38;2.30;;;19.70;65.40;;;;;;5014552;28;20022;-79
2021/04/05 08:59:37;;;;;;;10.30;2.97;;;19.90;65.00;;;;;;5015303;28;20038;-79
2021/04/05 09:02:12;;;;;;;9.25;3.00;;;20.10;64.50;;;;;;5021333;28;20030;-79
2021/04/05 09:04:40;;;;;;;6.00;3.50;;;20.00;64.90;;;;;;5025974;28;20505;-80
2021/04/05 09:07:30;;;;;;;9.10;2.80;;;20.20;65.10;;;;;;5021803;28;20033;-79
2021/04/05 09:10:02;;;;;;;5.95;2.70;;;20.10;64.30;;;;;;5031510;28;20014;-80
2021/04/05 09:12:30;;;;;;;5.68;2.90;;;19.90;65.10;;;;;;5027568;28;20053;-80
2021/04/05 09:15:38;;;;;;;9.57;3.58;;;19.60;65.70;;;;;;5022605;28;20077;-80
2021/04/05 09:18:31;;;;;;;4.28;2.90;;;19.50;66.10;;;;;;5031510;28;20497;-80
2021/04/05 09:21:12;;;;;;;7.50;3.13;;;19.60;66.10;;;;;;5021355;28;20041;-80
2021/04/05 09:24:28;;;;;;;5.40;3.55;;;20.00;65.50;;;;;;5029828;28;20022;-80
2021/04/05 09:27:22;;;;;;;8.15;3.05;;;20.30;64.50;;;;;;4959559;28;20503;-79
2021/04/05 09:30:09;;;;;;;4.15;3.15;;;20.60;64.00;;;;;;4951265;28;20150;-80
2021/04/05 09:32:50;;;;;;;6.57;4.00;;;20.10;64.80;;;;;;5012463;28;20041;-85
2021/04/05 09:35:54;;;;;;;6.90;3.00;;;20.00;65.70;;;;;;5026966;28;20477;-81
2021/04/05 09:38:39;;;;;;;10.95;5.57;;;19.90;65.90;;;;;;5017465;28;20033;-81
2021/04/05 09:41:31;;;;;;;7.28;4.15;;;19.60;66.20;;;;;;5033065;28;20470;-82
2021/04/05 09:44:19;;;;;;;12.15;3.50;;;19.50;67.40;;;;;;5030129;28;20120;-83
2021/04/05 09:47:03;;;;;;;6.57;3.28;;;19.40;67.90;;;;;;5029215;28;20061;-83
2021/04/05 09:49:43;;;;;;;4.70;2.88;;;19.40;67.90;;;;;;5014766;28;20049;-84
2021/04/05 09:52:40;;;;;;;7.18;3.50;;;19.40;68.40;;;;;;5026197;28;20458;-81
2021/04/05 09:55:12;;;;;;;7.22;3.10;;;19.20;68.80;;;;;;5015703;28;20471;-82
2021/04/05 09:57:51;;;;;;;8.82;2.78;;;19.30;69.90;;;;;;5019664;28;20033;-81
2021/04/05 10:00:19;;;;;;;8.75;3.50;;;19.30;69.50;;;;;;5025766;28;20045;-84
2021/04/05 10:03:06;;;;;;;5.13;3.00;;;19.40;70.10;;;;;;5013096;28;20045;-84
2021/04/05 10:05:34;;;;;;;6.50;3.38;;;19.50;68.90;;;;;;5015571;28;20029;-85
2021/04/05 10:08:01;;;;;;;4.60;3.00;;;19.50;69.70;;;;;;5013705;28;20045;-84
2021/04/05 10:10:29;;;;;;;4.65;3.10;;;19.40;69.70;;;;;;5013370;28;20372;-84
2021/04/05 10:12:57;;;;;;;5.30;2.65;;;19.50;69.70;;;;;;5027752;28;20024;-83
2021/04/05 10:15:26;;;;;;;6.13;2.58;;;19.40;69.20;;;;;;5017804;28;20026;-85
2021/04/05 10:17:59;;;;;;;9.20;2.72;;;19.60;69.10;;;;;;5028858;28;20382;-84
2021/04/05 10:20:27;;;;;;;7.07;3.40;;;19.80;69.40;;;;;;5018957;28;20076;-88
2021/04/05 10:22:54;;;;;;;8.48;2.78;;;19.60;70.00;;;;;;5027600;28;20029;-86
2021/04/05 10:25:23;;;;;;;6.80;3.50;;;19.60;71.30;;;;;;5025259;28;20030;-90
2021/04/05 10:27:57;;;;;;;8.25;2.63;;;19.70;72.00;;;;;;5019486;28;20014;-88
2021/04/05 10:30:34;;;;;;;5.32;2.95;;;19.90;72.00;;;;;;5018839;28;20414;-84
2021/04/05 10:33:28;;;;;;;5.70;3.33;;;19.50;73.10;;;;;;5015997;28;20018;-81
2021/04/05 10:35:57;;;;;;;33.22;17.17;;;19.20;74.70;;;;;;5014728;28;20038;-83
2021/04/05 10:38:24;;;;;;;21.45;10.45;;;19.00;75.10;;;;;;5031176;28;20018;-85
2021/04/05 10:40:52;;;;;;;8.98;5.10;;;18.90;75.50;;;;;;5016361;28;20046;-81
2021/04/05 10:43:39;;;;;;;12.25;7.50;;;18.70;75.80;;;;;;5024734;28;20024;-83
2021/04/05 10:46:29;;;;;;;11.75;5.43;;;18.60;77.80;;;;;;5022035;28;20112;-82
2021/04/05 10:49:00;;;;;;;12.90;4.60;;;18.40;77.20;;;;;;5021088;28;20118;-83
2021/04/05 10:51:48;;;;;;;8.30;4.20;;;18.40;78.40;;;;;;5018460;28;20025;-80
2021/04/05 10:54:21;;;;;;;6.68;3.60;;;18.40;78.50;;;;;;5014871;28;20092;-82
2021/04/05 10:56:56;;;;;;;7.18;3.00;;;18.50;78.40;;;;;;5012643;28;20030;-80
2021/04/05 10:59:29;;;;;;;10.60;4.32;;;18.50;78.60;;;;;;5013021;28;20030;-82
2021/04/05 11:02:09;;;;;;;6.22;3.85;;;18.50;78.30;;;;;;5003670;28;20116;-81
2021/04/05 11:04:36;;;;;;;6.13;4.30;;;18.50;78.70;;;;;;5007152;28;20069;-83
2021/04/05 11:07:03;;;;;;;4.55;3.35;;;18.60;78.40;;;;;;5027290;28;20470;-84
2021/04/05 11:09:31;;;;;;;11.23;3.65;;;18.40;78.10;;;;;;5021623;28;20021;-82
2021/04/05 11:11:59;;;;;;;8.07;3.40;;;18.20;79.20;;;;;;5019297;28;20858;-84
2021/04/05 11:14:26;;;;;;;11.85;4.32;;;18.10;79.60;;;;;;5024430;28;20022;-81
2021/04/05 11:17:00;;;;;;;5.22;3.53;;;18.00;79.30;;;;;;5018816;28;20026;-84
2021/04/05 11:19:39;;;;;;;7.70;4.68;;;18.00;79.70;;;;;;5017003;28;20025;-82
2021/04/05 11:22:12;;;;;;;7.80;3.90;;;18.00;79.50;;;;;;5031148;28;20117;-82
2021/04/05 11:24:39;;;;;;;12.55;5.03;;;17.80;79.60;;;;;;5021947;28;20033;-82
2021/04/05 11:27:10;;;;;;;8.90;4.45;;;17.60;80.30;;;;;;5028735;28;20548;-83
2021/04/05 11:29:40;;;;;;;16.83;4.93;;;17.40;81.00;;;;;;5027510;28;20083;-83
2021/04/05 11:32:13;;;;;;;9.80;4.72;;;17.30;81.60;;;;;;5021190;28;20096;-83
2021/04/05 11:34:43;;;;;;;7.75;5.75;;;17.30;82.50;;;;;;5015598;28;20033;-82
2021/04/05 11:37:14;;;;;;;7.85;4.15;;;17.20;82.50;;;;;;5023605;28;20386;-83
2021/04/05 11:39:45;;;;;;;10.70;5.28;;;17.20;83.50;;;;;;5019582;28;20594;-84
2021/04/05 11:42:14;;;;;;;6.05;3.92;;;17.00;83.20;;;;;;5028006;28;20065;-84
2021/04/05 11:44:49;;;;;;;7.88;4.93;;;16.90;83.70;;;;;;5025195;28;20386;-88
2021/04/05 11:47:17;;;;;;;10.95;7.32;;;16.80;84.20;;;;;;5028315;28;20402;-84
2021/04/05 11:49:44;;;;;;;13.10;5.75;;;16.60;84.70;;;;;;5022796;28;20042;-85
2021/04/05 11:52:25;;;;;;;9.95;5.03;;;16.60;85.10;;;;;;5029118;28;20028;-83
2021/04/05 11:54:55;;;;;;;10.82;5.38;;;16.50;85.10;;;;;;5019199;28;20014;-88
2021/04/05 11:57:27;;;;;;;11.80;6.03;;;16.40;85.60;;;;;;5024064;28;20057;-85
2021/04/05 12:00:09;;;;;;;14.57;6.32;;;16.30;86.60;;;;;;5022011;28;20025;-89
2021/04/05 12:02:59;;;;;;;9.93;4.13;;;16.30;86.80;;;;;;5021246;28;20033;-87
2021/04/05 12:05:30;;;;;;;9.82;4.45;;;16.20;86.80;;;;;;4990713;28;20038;-89
2021/04/05 12:08:15;;;;;;;15.07;3.97;;;16.30;87.20;;;;;;5012478;28;20125;-86
2021/04/05 12:10:45;;;;;;;5.80;4.20;;;16.20;87.10;;;;;;5023155;28;20438;-87
2021/04/05 12:13:29;;;;;;;9.00;4.38;;;16.20;87.70;;;;;;5011696;28;20037;-87
2021/04/05 12:15:58;;;;;;;8.15;4.55;;;16.10;88.20;;;;;;5015142;28;20029;-86
2021/04/05 12:18:26;;;;;;;7.80;4.32;;;16.10;88.50;;;;;;5022006;28;20053;-85
2021/04/05 12:21:18;;;;;;;7.63;3.53;;;16.10;89.20;;;;;;5026169;28;20029;-86
2021/04/05 12:23:57;;;;;;;6.07;2.83;;;16.10;89.80;;;;;;5028191;28;20029;-83
2021/04/05 12:26:27;;;;;;;8.13;3.42;;;16.20;89.20;;;;;;5022669;28;20028;-83
2021/04/05 12:29:05;;;;;;;10.50;3.40;;;16.00;90.30;;;;;;5028384;28;20017;-87
2021/04/05 12:31:32;;;;;;;5.63;2.97;;;15.70;90.70;;;;;;5024875;28;20087;-86
2021/04/05 12:34:14;;;;;;;6.13;2.75;;;15.60;91.00;;;;;;5023621;28;20022;-87
2021/04/05 12:36:42;;;;;;;7.00;2.92;;;15.60;91.40;;;;;;5019031;28;20026;-89
2021/04/05 12:39:11;;;;;;;5.00;2.42;;;15.50;91.50;;;;;;5013658;28;20045;-88
2021/04/05 12:41:39;;;;;;;5.03;2.78;;;15.50;91.50;;;;;;5015680;28;20122;-87
2021/04/05 12:44:09;;;;;;;9.23;2.35;;;15.50;91.10;;;;;;5024312;28;20510;-88
2021/04/05 12:46:38;;;;;;;4.97;2.13;;;15.50;90.50;;;;;;5022654;28;20100;-88
2021/04/05 12:49:05;;;;;;;3.70;2.05;;;15.40;85.80;;;;;;5024012;28;20548;-86
2021/04/05 12:51:31;;;;;;;6.28;2.17;;;15.40;86.20;;;;;;5013328;28;20026;-86
2021/04/05 12:54:01;;;;;;;2.50;1.90;;;15.50;87.00;;;;;;5011447;28;20113;-86
2021/04/05 12:56:28;;;;;;;3.10;1.98;;;15.60;86.90;;;;;;5010887;28;20557;-85
2021/04/05 12:58:55;;;;;;;4.90;1.85;;;15.60;83.70;;;;;;5011640;28;20030;-86
2021/04/05 13:01:34;;;;;;;6.13;2.20;;;15.40;83.90;;;;;;5010597;28;20033;-84
2021/04/05 13:04:02;;;;;;;4.75;1.85;;;15.40;84.80;;;;;;5012082;28;20026;-86
2021/04/05 13:06:38;;;;;;;3.10;1.90;;;15.40;85.50;;;;;;5012534;28;20109;-86
2021/04/05 13:09:19;;;;;;;5.68;2.35;;;15.40;87.20;;;;;;5012170;28;20022;-87
2021/04/05 13:12:08;;;;;;;6.32;1.95;;;15.40;85.20;;;;;;5012301;28;20030;-87
2021/04/05 13:14:35;;;;;;;5.30;1.90;;;15.40;85.50;;;;;;5012095;28;20449;-85
2021/04/05 13:17:07;;;;;;;4.78;2.13;;;15.40;85.10;;;;;;5013102;28;20021;-84
2021/04/05 13:19:38;;;;;;;5.47;1.80;;;15.40;83.40;;;;;;5015560;28;20030;-86
2021/04/05 13:22:12;;;;;;;3.57;2.27;;;15.30;83.60;;;;;;5015841;28;20461;-84
2021/04/05 13:24:44;;;;;;;2.72;1.75;;;15.20;85.10;;;;;;5015682;28;20088;-86